Time;durP1;ratioP1;P1;durP2;ratioP2;P2;SDS_P1;SDS_P2;PMS_P1;PMS_P2;Temp;Humidity;BMP_temperature;BMP_pressure;BME280_temperature;BME280_humidity;BME280_pressure;Samples;Min_cycle;Max_cycle;Signal;HPM_P1;HPM_P2
2022/07/26 00:00:18;;;;;;;3.73;1.27;;;21.30;99.90;;;;;;5069569;28;20472;-82
2022/07/26 00:02:46;;;;;;;4.93;1.40;;;21.20;99.90;;;;;;5069344;28;20525;-81
2022/07/26 00:05:13;;;;;;;4.13;1.03;;;21.30;99.90;;;;;;5069679;28;20483;-79
2022/07/26 00:07:40;;;;;;;2.93;1.13;;;21.20;99.90;;;;;;5069377;28;20460;-80
2022/07/26 00:10:08;;;;;;;2.40;1.13;;;21.10;99.90;;;;;;5068454;28;20495;-82
2022/07/26 00:12:35;;;;;;;4.30;1.63;;;21.10;99.90;;;;;;5069516;28;20480;-83
2022/07/26 00:15:02;;;;;;;5.07;1.53;;;21.00;99.90;;;;;;5059429;28;20487;-81
2022/07/26 00:17:33;;;;;;;3.83;1.50;;;21.00;99.90;;;;;;5068202;28;20464;-79
2022/07/26 00:20:00;;;;;;;4.20;1.17;;;20.90;99.90;;;;;;5069176;28;20467;-78
2022/07/26 00:22:38;;;;;;;2.57;1.00;;;20.90;99.90;;;;;;5069418;28;20819;-80
2022/07/26 00:25:07;;;;;;;3.60;1.10;;;20.80;99.90;;;;;;5068107;28;20512;-81
2022/07/26 00:27:35;;;;;;;4.57;1.33;;;20.80;99.90;;;;;;5068452;28;20451;-84
2022/07/26 00:30:06;;;;;;;2.77;1.00;;;20.80;99.90;;;;;;5069239;28;20543;-82
2022/07/26 00:32:34;;;;;;;3.40;1.40;;;20.70;99.90;;;;;;5069574;28;20455;-82
2022/07/26 00:35:01;;;;;;;5.30;1.13;;;20.60;99.90;;;;;;5067556;28;20455;-81
2022/07/26 00:37:28;;;;;;;2.60;1.10;;;20.50;99.90;;;;;;5067690;28;20479;-81
2022/07/26 00:39:55;;;;;;;3.80;1.30;;;20.50;99.90;;;;;;5069154;28;20467;-82
2022/07/26 00:42:22;;;;;;;2.90;1.20;;;20.40;99.90;;;;;;5068169;28;20452;-81
2022/07/26 00:44:49;;;;;;;5.33;1.60;;;20.50;99.90;;;;;;5067458;28;20448;-82
2022/07/26 00:47:17;;;;;;;5.93;1.70;;;20.40;99.90;;;;;;5069513;28;20452;-81
2022/07/26 00:49:45;;;;;;;3.33;1.57;;;20.30;99.90;;;;;;5074188;28;20503;-79
2022/07/26 00:52:12;;;;;;;5.10;2.00;;;20.30;99.90;;;;;;5071853;28;20476;-77
2022/07/26 00:54:42;;;;;;;4.00;1.70;;;20.30;99.90;;;;;;5057851;28;20449;-79
2022/07/26 00:57:09;;;;;;;5.00;1.47;;;20.30;99.90;;;;;;5048693;28;20460;-82
2022/07/26 00:59:37;;;;;;;7.80;1.60;;;20.30;99.90;;;;;;5066240;28;20480;-78
2022/07/26 01:02:06;;;;;;;3.10;1.80;;;20.10;99.90;;;;;;5090100;22;20590;-79
2022/07/26 01:04:33;;;;;;;4.40;1.40;;;20.10;99.90;;;;;;5067572;28;20439;-78
2022/07/26 01:07:02;;;;;;;3.00;1.13;;;20.10;99.90;;;;;;5058327;28;20441;-79
2022/07/26 01:09:30;;;;;;;2.63;1.27;;;20.10;99.90;;;;;;5068964;28;21124;-79
2022/07/26 01:11:58;;;;;;;6.57;1.20;;;20.10;99.90;;;;;;5072515;28;20468;-79
2022/07/26 01:14:25;;;;;;;3.90;1.30;;;20.10;99.90;;;;;;5062502;28;20518;-78
2022/07/26 01:16:53;;;;;;;5.23;1.63;;;20.00;99.90;;;;;;5068265;28;20542;-79
2022/07/26 01:19:20;;;;;;;4.53;1.50;;;20.10;99.90;;;;;;5070202;28;20556;-79
2022/07/26 01:21:49;;;;;;;4.10;1.20;;;20.00;99.90;;;;;;5069737;28;20522;-79
2022/07/26 01:24:17;;;;;;;3.57;1.40;;;20.00;99.90;;;;;;5055397;28;20486;-78
2022/07/26 01:26:44;;;;;;;5.40;1.30;;;19.90;99.90;;;;;;5069496;28;20486;-79
2022/07/26 01:29:11;;;;;;;4.77;1.47;;;19.90;99.90;;;;;;5070087;28;20490;-78
2022/07/26 01:31:38;;;;;;;11.07;1.77;;;19.80;99.90;;;;;;5069967;28;20436;-79
2022/07/26 01:34:05;;;;;;;3.40;1.20;;;19.90;99.90;;;;;;5067662;28;20535;-79
2022/07/26 01:36:32;;;;;;;8.70;2.13;;;19.80;99.90;;;;;;5069650;28;20490;-79
2022/07/26 01:39:00;;;;;;;3.33;1.37;;;19.80;99.90;;;;;;5069549;28;20483;-79
2022/07/26 01:41:27;;;;;;;8.37;1.87;;;19.90;99.90;;;;;;5069574;28;21088;-79
2022/07/26 01:43:54;;;;;;;3.27;1.83;;;19.90;99.90;;;;;;5068201;28;20537;-79
2022/07/26 01:46:21;;;;;;;5.03;1.40;;;19.90;99.90;;;;;;5061506;28;20980;-77
2022/07/26 01:48:48;;;;;;;4.30;1.37;;;20.00;99.90;;;;;;5054829;28;20507;-77
2022/07/26 01:51:14;;;;;;;4.40;1.63;;;20.10;99.90;;;;;;5054741;28;20462;-78
2022/07/26 01:53:43;;;;;;;6.20;1.83;;;20.00;99.90;;;;;;5053459;28;20558;-77
2022/07/26 01:56:12;;;;;;;7.20;2.47;;;20.00;99.90;;;;;;5055814;28;20456;-77
2022/07/26 01:58:39;;;;;;;10.77;2.07;;;20.00;99.90;;;;;;5056940;28;20498;-78
2022/07/26 02:01:07;;;;;;;5.03;1.70;;;20.10;99.90;;;;;;5065363;28;20483;-78
2022/07/26 02:03:33;;;;;;;5.43;1.80;;;20.10;99.90;;;;;;5067290;28;20872;-78
2022/07/26 02:06:00;;;;;;;4.30;2.17;;;20.10;99.90;;;;;;5056085;28;20571;-77
2022/07/26 02:08:27;;;;;;;4.90;1.97;;;20.10;99.90;;;;;;5055044;28;20998;-77
2022/07/26 02:11:00;;;;;;;3.83;2.00;;;20.10;99.90;;;;;;5054380;28;20956;-77
2022/07/26 02:13:28;;;;;;;2.93;1.57;;;20.00;99.90;;;;;;5053792;28;20766;-77
2022/07/26 02:15:57;;;;;;;6.03;2.13;;;20.00;99.90;;;;;;5056557;28;20456;-78
2022/07/26 02:18:24;;;;;;;5.57;1.77;;;20.00;99.90;;;;;;5059643;28;20529;-78
2022/07/26 02:20:52;;;;;;;6.00;1.70;;;20.00;99.90;;;;;;5060662;28;20444;-77
2022/07/26 02:23:19;;;;;;;6.87;1.90;;;20.00;99.90;;;;;;5060002;28;20521;-78
2022/07/26 02:25:46;;;;;;;7.30;2.10;;;19.90;99.90;;;;;;5063396;28;20499;-78
2022/07/26 02:28:13;;;;;;;3.90;1.83;;;20.00;99.90;;;;;;5062506;28;20948;-78
2022/07/26 02:30:41;;;;;;;3.80;1.57;;;20.10;99.90;;;;;;5061887;28;20456;-79
2022/07/26 02:33:08;;;;;;;5.60;1.70;;;20.10;99.90;;;;;;5060787;28;20507;-78
2022/07/26 02:35:35;;;;;;;10.67;2.70;;;20.10;99.90;;;;;;5062801;28;20491;-78
2022/07/26 02:38:03;;;;;;;5.70;1.90;;;20.00;99.90;;;;;;5061079;28;20871;-79
2022/07/26 02:40:30;;;;;;;6.40;2.00;;;20.10;99.90;;;;;;5063841;28;20579;-79
2022/07/26 02:42:57;;;;;;;5.67;1.87;;;20.00;99.90;;;;;;5063145;28;20472;-78
2022/07/26 02:45:24;;;;;;;7.23;1.93;;;20.00;99.90;;;;;;5062919;28;20843;-79
2022/07/26 02:47:54;;;;;;;4.30;2.03;;;19.90;99.90;;;;;;5062972;28;20551;-79
2022/07/26 02:50:24;;;;;;;4.50;2.10;;;20.00;99.90;;;;;;5060678;28;20479;-78
2022/07/26 02:52:52;;;;;;;7.50;2.50;;;20.00;99.90;;;;;;5059280;28;20470;-79
2022/07/26 02:55:20;;;;;;;5.00;1.70;;;19.90;99.90;;;;;;5059975;28;20462;-79
2022/07/26 02:57:48;;;;;;;5.50;2.43;;;19.90;99.90;;;;;;5072277;28;21031;-79
2022/07/26 03:00:18;;;;;;;5.43;2.20;;;19.90;99.90;;;;;;5060451;28;20582;-78
2022/07/26 03:02:45;;;;;;;4.13;1.87;;;19.90;99.90;;;;;;5058824;28;20509;-78
2022/07/26 03:05:13;;;;;;;6.30;1.60;;;19.90;99.90;;;;;;5059008;28;20451;-78
2022/07/26 03:07:40;;;;;;;8.40;2.10;;;19.90;99.90;;;;;;5068826;28;20456;-79
2022/07/26 03:10:08;;;;;;;4.07;1.77;;;19.90;99.90;;;;;;5065377;28;20446;-79
2022/07/26 03:12:35;;;;;;;6.87;2.07;;;19.90;99.90;;;;;;5060559;28;20487;-79
2022/07/26 03:15:02;;;;;;;4.90;1.53;;;19.60;99.90;;;;;;5060816;28;20524;-78
2022/07/26 03:17:29;;;;;;;4.57;1.40;;;19.80;99.90;;;;;;5062045;28;20448;-78
2022/07/26 03:19:55;;;;;;;5.00;1.50;;;19.80;99.90;;;;;;5061351;28;20912;-79
2022/07/26 03:22:24;;;;;;;5.03;1.60;;;19.90;99.90;;;;;;5061447;28;20492;-79
2022/07/26 03:24:50;;;;;;;8.30;2.67;;;19.90;99.90;;;;;;5061645;28;20462;-79
2022/07/26 03:27:17;;;;;;;11.70;2.50;;;19.80;99.90;;;;;;5063553;28;20870;-79
2022/07/26 03:29:44;;;;;;;5.83;2.07;;;19.80;99.90;;;;;;5063568;28;20448;-79
2022/07/26 03:32:11;;;;;;;4.50;1.73;;;19.80;99.90;;;;;;5064199;28;20467;-78
2022/07/26 03:34:38;;;;;;;9.20;2.27;;;19.80;99.90;;;;;;5060005;28;20538;-79
2022/07/26 03:37:05;;;;;;;6.80;2.00;;;19.80;99.90;;;;;;5053765;28;20448;-78
2022/07/26 03:39:33;;;;;;;5.43;1.57;;;19.90;99.90;;;;;;5056867;28;20559;-80
2022/07/26 03:42:00;;;;;;;3.87;1.47;;;19.90;99.90;;;;;;5053925;28;20533;-79
2022/07/26 03:44:27;;;;;;;7.83;2.47;;;19.90;99.90;;;;;;5052518;28;20484;-79
2022/07/26 03:46:54;;;;;;;5.07;1.80;;;19.80;99.90;;;;;;5053615;28;21032;-78
2022/07/26 03:49:20;;;;;;;6.20;2.10;;;19.80;99.90;;;;;;5057669;28;20459;-79
2022/07/26 03:51:47;;;;;;;6.93;2.17;;;19.80;99.90;;;;;;5057837;28;20525;-78
2022/07/26 03:54:14;;;;;;;5.17;1.57;;;19.80;99.90;;;;;;5054541;28;20460;-78
2022/07/26 03:56:42;;;;;;;7.33;3.03;;;19.90;99.90;;;;;;5053740;28;20487;-79
2022/07/26 03:59:10;;;;;;;5.30;2.07;;;19.80;99.90;;;;;;5052953;28;20487;-78
2022/07/26 04:01:40;;;;;;;8.00;2.70;;;19.80;99.90;;;;;;5055958;28;20439;-78
2022/07/26 04:04:07;;;;;;;5.83;2.00;;;19.80;99.90;;;;;;5053955;28;20535;-79
2022/07/26 04:06:34;;;;;;;8.50;2.37;;;19.70;99.90;;;;;;5053214;28;20913;-77
2022/07/26 04:09:01;;;;;;;4.93;1.97;;;19.50;99.90;;;;;;5055986;28;20574;-77
2022/07/26 04:11:28;;;;;;;9.73;2.63;;;19.80;99.90;;;;;;5056223;28;20520;-77
2022/07/26 04:13:56;;;;;;;5.93;2.10;;;20.00;99.90;;;;;;5056088;28;20475;-77
2022/07/26 04:16:23;;;;;;;6.27;2.83;;;20.10;99.90;;;;;;5057272;28;21252;-77
2022/07/26 04:18:50;;;;;;;6.17;2.20;;;20.20;99.90;;;;;;5055288;28;20543;-77
2022/07/26 04:21:17;;;;;;;5.00;2.10;;;20.20;99.90;;;;;;5055425;28;20542;-77
2022/07/26 04:23:44;;;;;;;5.70;2.43;;;20.20;99.90;;;;;;5052311;28;20490;-77
2022/07/26 04:26:12;;;;;;;4.47;1.97;;;20.30;99.90;;;;;;5052061;28;20602;-78
2022/07/26 04:28:40;;;;;;;6.23;2.00;;;20.20;99.90;;;;;;5050618;28;20542;-77
2022/07/26 04:31:09;;;;;;;5.37;1.90;;;19.90;99.90;;;;;;5051662;28;20535;-77
2022/07/26 04:33:35;;;;;;;9.23;3.30;;;19.80;99.90;;;;;;5051323;28;20471;-76
2022/07/26 04:36:03;;;;;;;6.90;2.93;;;19.60;99.90;;;;;;5051551;28;20535;-77
2022/07/26 04:38:30;;;;;;;8.00;2.70;;;19.50;99.90;;;;;;5051699;28;20458;-78
2022/07/26 04:40:57;;;;;;;6.73;2.23;;;19.20;99.90;;;;;;5055430;28;20487;-78
2022/07/26 04:43:24;;;;;;;4.67;2.90;;;19.30;99.90;;;;;;5054553;28;20559;-76
2022/07/26 04:45:51;;;;;;;12.93;2.83;;;18.90;99.90;;;;;;5058418;28;20546;-78
2022/07/26 04:48:19;;;;;;;8.93;2.80;;;19.00;99.90;;;;;;5057605;28;20485;-78
2022/07/26 04:50:46;;;;;;;11.40;3.27;;;18.80;99.90;;;;;;5057526;28;20998;-78
2022/07/26 04:53:13;;;;;;;7.40;2.70;;;18.90;99.90;;;;;;5055604;28;20566;-78
2022/07/26 04:55:41;;;;;;;6.83;3.23;;;18.80;99.90;;;;;;5059848;28;20458;-79
2022/07/26 04:58:08;;;;;;;4.77;3.00;;;18.60;99.90;;;;;;5059555;28;20467;-77
2022/07/26 05:00:35;;;;;;;4.63;2.73;;;18.60;99.90;;;;;;5057618;28;20569;-77
2022/07/26 05:03:03;;;;;;;9.23;3.00;;;18.60;99.90;;;;;;5056581;28;20566;-78
2022/07/26 05:05:32;;;;;;;6.40;2.87;;;18.50;99.90;;;;;;5057566;28;20470;-78
2022/07/26 05:08:01;;;;;;;9.53;3.20;;;18.50;99.90;;;;;;5043778;28;20474;-79
2022/07/26 05:10:30;;;;;;;8.73;4.00;;;18.50;99.90;;;;;;5052314;28;20447;-78
2022/07/26 05:12:57;;;;;;;8.67;3.07;;;18.60;99.90;;;;;;5045472;28;20476;-78
2022/07/26 05:15:25;;;;;;;5.90;2.67;;;18.50;99.90;;;;;;5050406;28;20539;-79
2022/07/26 05:17:52;;;;;;;8.53;2.70;;;18.50;99.90;;;;;;5054628;28;20460;-77
2022/07/26 05:20:19;;;;;;;8.13;3.10;;;18.60;99.90;;;;;;5056864;28;20500;-77
2022/07/26 05:22:47;;;;;;;7.03;3.00;;;18.70;99.90;;;;;;5055278;28;20527;-78
2022/07/26 05:25:14;;;;;;;7.50;3.30;;;18.70;99.90;;;;;;5056515;28;20487;-77
2022/07/26 05:27:41;;;;;;;6.63;3.20;;;18.60;99.90;;;;;;5064382;28;20534;-78
2022/07/26 05:30:09;;;;;;;5.70;3.40;;;18.40;99.90;;;;;;5076944;28;20447;-78
2022/07/26 05:32:36;;;;;;;8.17;3.00;;;18.50;99.90;;;;;;5058969;28;21337;-79
2022/07/26 05:35:03;;;;;;;9.47;3.47;;;18.50;99.90;;;;;;5054413;28;20997;-77
2022/07/26 05:37:30;;;;;;;5.67;2.47;;;18.40;99.90;;;;;;5059053;28;20461;-79
2022/07/26 05:39:59;;;;;;;6.90;2.50;;;18.40;99.90;;;;;;5056727;28;20519;-78
2022/07/26 05:42:25;;;;;;;6.13;2.63;;;18.50;99.90;;;;;;5074437;28;20903;-78
2022/07/26 05:44:52;;;;;;;7.37;3.00;;;18.60;99.90;;;;;;5067939;28;20537;-79
2022/07/26 05:47:19;;;;;;;7.60;3.73;;;18.60;99.90;;;;;;5068033;28;20528;-79
2022/07/26 05:49:46;;;;;;;5.60;2.90;;;18.60;99.90;;;;;;5073813;28;20443;-78
2022/07/26 05:52:13;;;;;;;12.03;2.93;;;18.50;99.90;;;;;;5063738;28;20553;-78
2022/07/26 05:54:40;;;;;;;7.27;3.00;;;18.70;99.90;;;;;;5072277;28;20529;-79
2022/07/26 05:57:08;;;;;;;7.23;2.90;;;18.70;99.90;;;;;;5057809;28;20562;-79
2022/07/26 05:59:35;;;;;;;10.13;2.83;;;18.70;99.90;;;;;;5056676;28;20946;-78
2022/07/26 06:02:02;;;;;;;7.50;3.10;;;18.70;99.90;;;;;;5066704;28;20508;-78
2022/07/26 06:04:29;;;;;;;6.10;2.40;;;18.70;99.90;;;;;;5053228;28;20546;-77
2022/07/26 06:06:56;;;;;;;6.10;2.40;;;18.70;99.90;;;;;;5053051;28;21003;-79
2022/07/26 06:09:23;;;;;;;5.33;2.80;;;18.70;99.90;;;;;;5067503;28;20517;-78
2022/07/26 06:11:51;;;;;;;9.23;2.53;;;18.80;99.90;;;;;;5073074;28;20446;-78
2022/07/26 06:14:19;;;;;;;3.57;2.47;;;18.80;99.90;;;;;;5072120;28;20541;-77
2022/07/26 06:16:47;;;;;;;8.87;2.60;;;18.80;99.90;;;;;;5058861;28;20973;-78
2022/07/26 06:19:14;;;;;;;6.83;2.77;;;18.90;99.90;;;;;;5054154;28;20528;-79
2022/07/26 06:21:41;;;;;;;9.43;4.10;;;19.00;99.90;;;;;;5054214;28;20538;-78
2022/07/26 06:24:08;;;;;;;5.97;2.83;;;19.00;99.90;;;;;;5059140;28;20486;-78
2022/07/26 06:26:35;;;;;;;7.30;3.43;;;19.20;99.90;;;;;;5072911;28;21045;-79
2022/07/26 06:29:02;;;;;;;6.50;2.80;;;19.20;99.90;;;;;;5073693;28;20554;-77
2022/07/26 06:31:30;;;;;;;7.63;2.27;;;19.30;99.90;;;;;;5060487;28;20535;-77
2022/07/26 06:33:57;;;;;;;4.40;2.17;;;19.50;99.90;;;;;;5054203;28;20503;-78
2022/07/26 06:36:24;;;;;;;9.93;2.60;;;20.30;99.90;;;;;;5066623;28;20493;-78
2022/07/26 06:38:51;;;;;;;10.20;3.93;;;20.50;99.90;;;;;;5065969;28;20471;-79
2022/07/26 06:41:18;;;;;;;5.77;2.87;;;20.60;99.90;;;;;;5060474;28;20499;-77
2022/07/26 06:43:45;;;;;;;8.17;3.83;;;20.80;99.90;;;;;;5060554;28;21045;-77
2022/07/26 06:46:11;;;;;;;10.90;3.40;;;20.70;99.90;;;;;;5058515;28;20469;-78
2022/07/26 06:48:40;;;;;;;6.80;3.20;;;20.70;99.90;;;;;;5068285;28;20549;-78
2022/07/26 06:51:08;;;;;;;10.50;3.87;;;20.30;99.90;;;;;;5056715;28;20490;-77
2022/07/26 06:53:36;;;;;;;7.90;2.87;;;20.30;99.90;;;;;;5056465;28;20487;-78
2022/07/26 06:56:03;;;;;;;7.30;3.90;;;20.30;99.90;;;;;;5058683;28;20444;-76
2022/07/26 06:58:30;;;;;;;12.30;4.33;;;20.30;99.90;;;;;;5057005;28;20495;-80
2022/07/26 07:00:57;;;;;;;11.90;4.90;;;20.00;99.90;;;;;;5055428;28;20519;-79
2022/07/26 07:03:24;;;;;;;8.20;3.27;;;19.80;99.90;;;;;;5053246;28;20571;-78
2022/07/26 07:05:52;;;;;;;12.10;3.90;;;19.90;99.90;;;;;;5054180;28;21020;-77
2022/07/26 07:08:21;;;;;;;7.40;4.57;;;20.00;99.90;;;;;;5054063;28;20495;-77
2022/07/26 07:10:48;;;;;;;10.13;3.97;;;19.80;99.90;;;;;;5054435;28;20540;-78
2022/07/26 07:13:15;;;;;;;9.93;3.97;;;19.90;99.90;;;;;;5052029;28;20468;-77
2022/07/26 07:15:42;;;;;;;9.47;3.67;;;19.90;99.90;;;;;;5053285;28;20527;-76
2022/07/26 07:18:09;;;;;;;11.10;5.37;;;19.80;99.90;;;;;;5046818;28;20456;-78
2022/07/26 07:20:36;;;;;;;10.00;4.70;;;19.90;99.90;;;;;;5052136;28;20496;-78
2022/07/26 07:23:04;;;;;;;11.33;6.17;;;20.10;99.90;;;;;;5052423;28;20546;-78
2022/07/26 07:25:31;;;;;;;11.43;6.60;;;20.00;99.90;;;;;;5054239;28;20483;-78
2022/07/26 07:27:59;;;;;;;14.70;6.90;;;20.10;99.90;;;;;;5051878;28;20452;-77
2022/07/26 07:30:26;;;;;;;17.70;10.60;;;20.30;99.90;;;;;;5054996;28;20467;-77
2022/07/26 07:32:55;;;;;;;15.30;9.60;;;20.20;99.90;;;;;;5050121;28;20484;-77
2022/07/26 07:35:22;;;;;;;15.80;9.80;;;20.40;99.90;;;;;;5051954;28;20827;-78
2022/07/26 07:37:49;;;;;;;19.17;11.33;;;20.40;99.90;;;;;;5053961;28;20542;-78
2022/07/26 07:40:17;;;;;;;20.80;11.10;;;20.50;99.90;;;;;;5054572;28;20938;-78
2022/07/26 07:42:44;;;;;;;15.47;10.17;;;20.60;99.90;;;;;;5054799;28;20475;-76
2022/07/26 07:45:11;;;;;;;12.50;9.80;;;20.60;99.90;;;;;;5052844;28;20547;-76
2022/07/26 07:47:38;;;;;;;16.20;10.33;;;20.50;99.90;;;;;;5054381;28;20463;-78
2022/07/26 07:50:06;;;;;;;12.17;7.33;;;20.60;99.90;;;;;;5050254;28;20571;-77
2022/07/26 07:52:33;;;;;;;14.60;8.67;;;20.60;99.90;;;;;;5054761;28;20577;-81
2022/07/26 07:55:02;;;;;;;10.50;5.77;;;20.50;99.90;;;;;;5052667;28;20462;-77
2022/07/26 07:57:34;;;;;;;11.83;5.77;;;20.50;99.90;;;;;;5051734;28;20456;-79
2022/07/26 08:00:01;;;;;;;9.33;5.20;;;20.50;99.90;;;;;;5061822;28;20878;-78
2022/07/26 08:02:28;;;;;;;11.10;4.93;;;20.60;99.90;;;;;;5059335;28;20518;-78
2022/07/26 08:04:55;;;;;;;10.03;4.50;;;20.80;99.90;;;;;;5058378;28;20474;-79
2022/07/26 08:07:22;;;;;;;7.10;4.27;;;20.80;99.90;;;;;;5069956;28;20462;-78
2022/07/26 08:09:50;;;;;;;9.00;4.17;;;20.90;99.90;;;;;;5059972;28;20490;-79
2022/07/26 08:12:17;;;;;;;10.70;5.80;;;21.00;99.90;;;;;;5060475;28;20476;-78
2022/07/26 08:14:48;;;;;;;11.33;4.37;;;20.90;99.90;;;;;;5058151;28;20460;-79
2022/07/26 08:17:19;;;;;;;12.27;5.83;;;20.90;99.90;;;;;;5057733;28;20472;-80
2022/07/26 08:19:46;;;;;;;11.53;4.80;;;20.80;99.90;;;;;;5055511;28;20502;-79
2022/07/26 08:22:13;;;;;;;6.97;4.50;;;20.90;99.90;;;;;;5053570;28;20506;-79
2022/07/26 08:24:40;;;;;;;12.30;4.33;;;21.00;99.90;;;;;;5055718;28;20440;-78
2022/07/26 08:27:07;;;;;;;8.77;4.80;;;21.30;99.90;;;;;;5052493;28;20476;-78
2022/07/26 08:29:34;;;;;;;11.50;4.60;;;21.40;99.90;;;;;;5057334;28;20468;-78
2022/07/26 08:32:03;;;;;;;6.70;6.00;;;21.70;99.90;;;;;;5054598;28;20504;-79
2022/07/26 08:34:29;;;;;;;8.27;7.10;;;21.70;99.90;;;;;;5048371;28;20547;-79
2022/07/26 08:36:56;;;;;;;12.47;7.17;;;22.00;99.90;;;;;;5054762;28;20460;-80
2022/07/26 08:39:23;;;;;;;9.90;4.50;;;22.30;99.90;;;;;;5055288;28;20542;-79
2022/07/26 08:41:50;;;;;;;9.60;4.80;;;22.60;99.90;;;;;;5057342;28;21035;-78
2022/07/26 08:44:18;;;;;;;7.73;3.60;;;22.50;99.90;;;;;;5059598;28;20476;-79
2022/07/26 08:46:45;;;;;;;7.00;3.90;;;22.20;99.90;;;;;;5055770;28;20456;-78
2022/07/26 08:49:14;;;;;;;8.23;4.47;;;22.20;99.90;;;;;;5052845;28;21253;-79
2022/07/26 08:51:44;;;;;;;6.67;3.70;;;22.10;99.90;;;;;;5054852;28;20854;-78
2022/07/26 08:54:12;;;;;;;8.40;3.73;;;21.70;99.90;;;;;;5049156;28;20452;-80
2022/07/26 08:56:42;;;;;;;5.60;3.60;;;21.40;99.90;;;;;;5055932;28;20956;-80
2022/07/26 08:59:14;;;;;;;6.97;3.80;;;21.40;99.90;;;;;;5053791;28;20478;-79
2022/07/26 09:01:55;;;;;;;6.30;4.80;;;21.40;99.90;;;;;;5048443;28;20471;-79
2022/07/26 09:04:24;;;;;;;11.63;4.60;;;21.00;99.90;;;;;;5051015;28;20452;-77
2022/07/26 09:07:00;;;;;;;8.57;5.07;;;20.80;99.90;;;;;;5048302;28;20471;-78
2022/07/26 09:09:27;;;;;;;10.17;4.70;;;20.60;99.90;;;;;;5044700;28;20452;-78
2022/07/26 09:11:55;;;;;;;13.93;6.67;;;20.70;99.90;;;;;;5047880;28;20487;-78
2022/07/26 09:14:22;;;;;;;10.40;5.67;;;20.90;99.90;;;;;;5051177;28;20505;-78
2022/07/26 09:17:00;;;;;;;7.07;4.80;;;21.30;99.90;;;;;;5049483;28;20462;-79
2022/07/26 09:19:28;;;;;;;10.37;4.17;;;22.00;99.90;;;;;;5050751;28;20459;-77
2022/07/26 09:21:56;;;;;;;7.87;3.77;;;22.50;99.90;;;;;;5057549;28;20519;-79
2022/07/26 09:24:31;;;;;;;8.77;2.93;;;22.90;99.90;;;;;;5056685;28;20444;-79
2022/07/26 09:26:59;;;;;;;11.40;4.20;;;23.20;99.90;;;;;;5060733;28;20832;-80
2022/07/26 09:29:28;;;;;;;5.67;3.30;;;23.20;99.90;;;;;;5061000;28;20555;-79
2022/07/26 09:32:10;;;;;;;8.10;3.30;;;22.80;99.90;;;;;;5061834;28;20462;-79
2022/07/26 09:34:39;;;;;;;5.27;3.40;;;22.60;99.90;;;;;;5059778;28;20450;-79
2022/07/26 09:37:05;;;;;;;5.77;3.80;;;22.10;99.90;;;;;;5056199;28;20486;-79
2022/07/26 09:39:32;;;;;;;9.00;4.00;;;21.90;99.90;;;;;;5070701;28;20514;-79
2022/07/26 09:42:12;;;;;;;6.73;3.83;;;21.70;99.90;;;;;;5068722;28;20589;-78
2022/07/26 09:44:42;;;;;;;7.67;3.80;;;21.60;99.90;;;;;;5056781;28;20527;-79
2022/07/26 09:47:09;;;;;;;7.67;3.50;;;21.40;99.90;;;;;;5053901;28;20452;-77
2022/07/26 09:49:36;;;;;;;3.70;2.30;;;21.40;99.90;;;;;;5049074;28;20851;-77
2022/07/26 09:52:21;;;;;;;6.53;4.10;;;21.90;99.90;;;;;;5053564;28;20558;-78
2022/07/26 09:54:49;;;;;;;5.83;3.67;;;22.10;99.90;;;;;;5054669;28;20517;-79
2022/07/26 09:57:20;;;;;;;5.30;2.60;;;22.30;99.90;;;;;;5052254;28;20534;-79
2022/07/26 09:59:49;;;;;;;7.10;3.70;;;22.60;99.90;;;;;;5059585;28;20475;-80
2022/07/26 10:02:16;;;;;;;4.60;2.93;;;23.10;99.90;;;;;;5060909;28;20487;-80
2022/07/26 10:04:49;;;;;;;6.50;3.67;;;23.40;99.90;;;;;;5055849;28;20523;-81
2022/07/26 10:07:22;;;;;;;7.40;3.90;;;23.60;99.90;;;;;;5047954;28;20519;-80
2022/07/26 10:09:57;;;;;;;12.67;4.10;;;23.60;99.90;;;;;;5059292;28;20476;-79
2022/07/26 10:12:28;;;;;;;6.13;3.93;;;23.90;99.90;;;;;;5058957;28;20502;-79
2022/07/26 10:14:55;;;;;;;6.00;3.77;;;24.60;99.90;;;;;;5058054;28;20976;-78
2022/07/26 10:17:49;;;;;;;6.30;4.33;;;24.70;99.90;;;;;;5053818;28;20521;-80
2022/07/26 10:20:45;;;;;;;7.97;5.57;;;24.40;99.90;;;;;;5058003;28;20472;-78
2022/07/26 10:23:39;;;;;;;9.30;4.17;;;24.00;99.90;;;;;;5021987;28;20486;-79
2022/07/26 10:26:09;;;;;;;10.17;5.30;;;24.20;99.90;;;;;;5056494;28;20523;-81
2022/07/26 10:28:37;;;;;;;7.03;4.53;;;24.00;99.90;;;;;;5056465;28;20487;-80
2022/07/26 10:31:29;;;;;;;8.67;5.67;;;23.40;99.90;;;;;;5056193;28;20535;-80
2022/07/26 10:33:57;;;;;;;6.40;3.80;;;23.20;99.90;;;;;;5052678;28;20482;-79
2022/07/26 10:36:33;;;;;;;3.60;2.40;;;22.70;99.90;;;;;;5058135;28;20471;-78
2022/07/26 10:39:22;;;;;;;4.00;1.90;;;22.50;99.90;;;;;;5059828;28;20748;-82
2022/07/26 10:41:59;;;;;;;4.20;1.80;;;22.20;99.90;;;;;;5065038;28;20571;-81
2022/07/26 10:44:27;;;;;;;6.70;2.00;;;22.10;99.90;;;;;;5052690;28;20447;-81
2022/07/26 10:47:17;;;;;;;5.60;1.93;;;22.20;99.90;;;;;;5064784;28;20922;-82
2022/07/26 10:49:54;;;;;;;7.07;2.63;;;22.30;99.90;;;;;;5047448;28;20960;-79
2022/07/26 10:52:23;;;;;;;8.53;3.43;;;22.50;99.90;;;;;;5060515;28;20468;-81
2022/07/26 10:55:16;;;;;;;3.90;2.50;;;22.70;99.90;;;;;;5062871;28;20472;-79
2022/07/26 10:57:45;;;;;;;5.93;2.00;;;22.90;99.90;;;;;;5055003;28;20456;-80
2022/07/26 11:00:19;;;;;;;3.33;2.10;;;22.90;99.90;;;;;;5057801;28;20539;-80
2022/07/26 11:02:55;;;;;;;4.87;2.10;;;22.70;99.90;;;;;;5056550;28;21015;-80
2022/07/26 11:05:27;;;;;;;3.03;1.90;;;22.50;99.90;;;;;;5057895;28;20507;-82
2022/07/26 11:08:03;;;;;;;3.23;2.83;;;23.10;99.90;;;;;;5057344;28;20456;-80
2022/07/26 11:10:33;;;;;;;3.00;2.23;;;24.20;99.90;;;;;;5060659;28;20647;-82
2022/07/26 11:13:06;;;;;;;4.30;2.33;;;25.10;99.90;;;;;;5081667;28;20491;-82
2022/07/26 11:15:34;;;;;;;5.80;2.23;;;25.40;99.90;;;;;;5072296;28;20459;-80
2022/07/26 11:18:10;;;;;;;4.10;2.80;;;25.50;99.90;;;;;;5076292;28;20459;-79
2022/07/26 11:20:37;;;;;;;4.87;3.07;;;25.60;99.90;;;;;;5068545;28;20479;-81
2022/07/26 11:23:04;;;;;;;4.67;2.30;;;26.20;99.90;;;;;;5072745;28;20541;-81
2022/07/26 11:25:35;;;;;;;3.13;2.33;;;26.60;99.90;;;;;;5082775;28;20954;-81
2022/07/26 11:28:03;;;;;;;2.50;1.70;;;26.50;99.90;;;;;;5081111;28;20474;-81
2022/07/26 11:30:30;;;;;;;3.87;1.60;;;26.30;99.90;;;;;;5062328;28;20452;-81
2022/07/26 11:32:58;;;;;;;3.43;1.67;;;25.70;99.90;;;;;;5059619;28;20478;-83
2022/07/26 11:35:27;;;;;;;4.27;3.33;;;25.30;99.90;;;;;;5060079;28;20520;-80
2022/07/26 11:38:00;;;;;;;3.97;3.37;;;25.10;99.90;;;;;;5061209;28;20471;-83
2022/07/26 11:40:45;;;;;;;4.63;3.10;;;25.20;99.90;;;;;;5072327;28;20459;-83
2022/07/26 11:43:12;;;;;;;4.23;3.27;;;25.10;99.90;;;;;;5079416;28;20502;-80
2022/07/26 11:45:40;;;;;;;2.67;2.10;;;25.00;99.90;;;;;;5058951;28;20533;-80
2022/07/26 11:48:07;;;;;;;2.90;1.20;;;25.00;99.90;;;;;;5059014;28;21062;-80
2022/07/26 11:50:34;;;;;;;2.10;1.00;;;24.50;99.90;;;;;;5054914;28;20518;-80
2022/07/26 11:53:01;;;;;;;3.07;1.03;;;24.70;99.90;;;;;;5053657;28;20487;-79
2022/07/26 11:55:29;;;;;;;1.80;0.90;;;24.70;99.90;;;;;;5056814;28;20483;-80
2022/07/26 11:58:05;;;;;;;6.43;0.80;;;24.50;99.90;;;;;;5058567;28;20896;-80
2022/07/26 12:00:32;;;;;;;2.70;1.00;;;24.60;99.90;;;;;;5065671;28;20519;-80
2022/07/26 12:02:59;;;;;;;3.03;0.80;;;24.20;99.90;;;;;;5057167;28;20522;-80
2022/07/26 12:05:25;;;;;;;1.80;0.77;;;24.40;99.90;;;;;;5057954;28;20486;-82
2022/07/26 12:07:55;;;;;;;1.70;0.70;;;24.80;99.90;;;;;;5055531;28;20444;-83
2022/07/26 12:10:22;;;;;;;1.90;0.73;;;25.70;99.90;;;;;;5054805;28;20487;-79
2022/07/26 12:12:49;;;;;;;1.70;0.70;;;25.90;99.90;;;;;;5057254;28;20460;-80
2022/07/26 12:15:17;;;;;;;2.00;0.80;;;25.80;99.90;;;;;;5057211;28;20467;-82
2022/07/26 12:17:58;;;;;;;2.80;0.70;;;25.40;99.90;;;;;;5055549;28;20539;-82
2022/07/26 12:20:26;;;;;;;2.80;0.70;;;26.00;99.90;;;;;;5053581;28;21253;-80
2022/07/26 12:22:54;;;;;;;2.37;0.70;;;26.30;99.90;;;;;;5059429;28;20491;-81
2022/07/26 12:28:12;;;;;;;2.00;0.80;;;25.60;99.90;;;;;;5056300;28;20459;-80
2022/07/26 12:30:40;;;;;;;2.50;0.70;;;25.60;99.90;;;;;;5055290;28;20503;-84
2022/07/26 12:33:07;;;;;;;3.87;0.90;;;25.30;99.90;;;;;;5056086;28;20487;-82
2022/07/26 12:35:35;;;;;;;2.47;0.73;;;25.20;99.90;;;;;;5057374;28;20459;-81
2022/07/26 12:38:02;;;;;;;2.20;0.70;;;25.60;99.90;;;;;;5058916;28;20450;-82
2022/07/26 12:40:32;;;;;;;2.47;1.00;;;26.30;99.90;;;;;;5056383;28;20571;-81
2022/07/26 12:43:00;;;;;;;2.20;1.10;;;26.10;99.90;;;;;;5056076;28;20523;-79
2022/07/26 12:45:28;;;;;;;3.53;1.10;;;25.80;99.90;;;;;;5054452;28;20488;-76
2022/07/26 12:47:58;;;;;;;3.57;1.10;;;26.20;99.90;;;;;;5053537;28;20520;-81
2022/07/26 12:50:27;;;;;;;2.50;1.10;;;26.50;99.90;;;;;;5053714;28;20456;-82
2022/07/26 12:53:03;;;;;;;4.50;1.40;;;27.00;99.90;;;;;;5054051;28;20554;-80
2022/07/26 12:55:30;;;;;;;2.27;1.17;;;26.90;99.90;;;;;;5055715;28;20473;-81